sensor_id;sensor_type;location;lat;lon;timestamp;P1;durP1;ratioP1;P2;durP2;ratioP2
72547;SDS011;60570;50.848;6.776;2022-09-12T00:01:07;5.75;;;2.58;;
72547;SDS011;60570;50.848;6.776;2022-09-12T00:02:09;6.57;;;2.78;;
72547;SDS011;60570;50.848;6.776;2022-09-12T00:03:09;5.32;;;2.72;;
72547;SDS011;60570;50.848;6.776;2022-09-12T00:04:10;5.72;;;3.10;;
72547;SDS011;60570;50.848;6.776;2022-09-12T00:05:10;5.40;;;3.05;;
72547;SDS011;60570;50.848;6.776;2022-09-12T00:06:19;5.38;;;2.78;;
72547;SDS011;60570;50.848;6.776;2022-09-12T00:07:22;4.90;;;2.92;;
72547;SDS011;60570;50.848;6.776;2022-09-12T00:08:23;5.28;;;3.00;;
72547;SDS011;60570;50.848;6.776;2022-09-12T00:09:23;5.32;;;3.30;;
72547;SDS011;60570;50.848;6.776;2022-09-12T00:10:24;5.20;;;3.25;;
72547;SDS011;60570;50.848;6.776;2022-09-12T00:11:25;5.15;;;3.28;;
72547;SDS011;60570;50.848;6.776;2022-09-12T00:12:26;5.80;;;3.25;;
72547;SDS011;60570;50.848;6.776;2022-09-12T00:13:26;4.35;;;2.55;;
72547;SDS011;60570;50.848;6.776;2022-09-12T00:14:27;5.47;;;3.00;;
72547;SDS011;60570;50.848;6.776;2022-09-12T00:15:27;7.53;;;3.15;;
72547;SDS011;60570;50.848;6.776;2022-09-12T00:16:28;5.65;;;2.72;;
72547;SDS011;60570;50.848;6.776;2022-09-12T00:17:32;5.72;;;3.10;;
72547;SDS011;60570;50.848;6.776;2022-09-12T00:18:33;4.93;;;2.80;;
72547;SDS011;60570;50.848;6.776;2022-09-12T00:19:34;5.00;;;2.78;;
72547;SDS011;60570;50.848;6.776;2022-09-12T00:20:34;4.82;;;2.78;;
72547;SDS011;60570;50.848;6.776;2022-09-12T00:21:35;4.32;;;2.40;;
72547;SDS011;60570;50.848;6.776;2022-09-12T00:22:37;5.97;;;2.55;;
72547;SDS011;60570;50.848;6.776;2022-09-12T00:23:37;4.88;;;3.25;;
72547;SDS011;60570;50.848;6.776;2022-09-12T00:24:38;5.30;;;2.85;;
72547;SDS011;60570;50.848;6.776;2022-09-12T00:25:43;5.28;;;2.92;;
72547;SDS011;60570;50.848;6.776;2022-09-12T00:26:45;6.20;;;3.05;;
72547;SDS011;60570;50.848;6.776;2022-09-12T00:27:45;6.88;;;2.60;;
72547;SDS011;60570;50.848;6.776;2022-09-12T00:28:46;4.38;;;2.47;;
72547;SDS011;60570;50.848;6.776;2022-09-12T00:29:47;7.60;;;3.70;;
72547;SDS011;60570;50.848;6.776;2022-09-12T00:30:48;5.28;;;2.90;;
72547;SDS011;60570;50.848;6.776;2022-09-12T00:31:48;5.22;;;2.90;;
72547;SDS011;60570;50.848;6.776;2022-09-12T00:32:49;4.82;;;2.63;;
72547;SDS011;60570;50.848;6.776;2022-09-12T00:33:51;4.95;;;2.95;;
72547;SDS011;60570;50.848;6.776;2022-09-12T00:34:53;5.80;;;2.97;;
72547;SDS011;60570;50.848;6.776;2022-09-12T00:35:54;5.93;;;2.78;;
72547;SDS011;60570;50.848;6.776;2022-09-12T00:36:54;4.85;;;2.80;;
72547;SDS011;60570;50.848;6.776;2022-09-12T00:37:55;5.25;;;2.92;;
72547;SDS011;60570;50.848;6.776;2022-09-12T00:38:55;5.50;;;3.20;;
72547;SDS011;60570;50.848;6.776;2022-09-12T00:39:56;7.93;;;3.00;;
72547;SDS011;60570;50.848;6.776;2022-09-12T00:40:56;4.97;;;2.97;;
72547;SDS011;60570;50.848;6.776;2022-09-12T00:41:57;6.95;;;3.13;;
72547;SDS011;60570;50.848;6.776;2022-09-12T00:42:57;6.03;;;2.65;;
72547;SDS011;60570;50.848;6.776;2022-09-12T00:44:02;4.57;;;2.78;;
72547;SDS011;60570;50.848;6.776;2022-09-12T00:45:23;8.00;;;3.15;;
72547;SDS011;60570;50.848;6.776;2022-09-12T00:46:29;5.35;;;2.78;;
72547;SDS011;60570;50.848;6.776;2022-09-12T00:47:30;6.30;;;3.03;;
72547;SDS011;60570;50.848;6.776;2022-09-12T00:48:32;5.32;;;2.90;;
72547;SDS011;60570;50.848;6.776;2022-09-12T00:49:44;5.07;;;3.08;;
72547;SDS011;60570;50.848;6.776;2022-09-12T00:50:48;6.03;;;3.05;;
72547;SDS011;60570;50.848;6.776;2022-09-12T00:51:50;5.47;;;3.42;;
72547;SDS011;60570;50.848;6.776;2022-09-12T00:53:02;6.00;;;3.60;;
72547;SDS011;60570;50.848;6.776;2022-09-12T00:54:07;4.53;;;2.70;;
72547;SDS011;60570;50.848;6.776;2022-09-12T00:55:19;4.75;;;2.63;;
72547;SDS011;60570;50.848;6.776;2022-09-12T00:56:23;5.20;;;3.00;;
72547;SDS011;60570;50.848;6.776;2022-09-12T00:57:37;6.00;;;2.90;;
72547;SDS011;60570;50.848;6.776;2022-09-12T00:58:47;7.32;;;3.55;;
72547;SDS011;60570;50.848;6.776;2022-09-12T01:00:07;6.28;;;3.60;;
72547;SDS011;60570;50.848;6.776;2022-09-12T01:01:19;6.10;;;3.13;;
72547;SDS011;60570;50.848;6.776;2022-09-12T01:02:19;5.38;;;3.15;;
72547;SDS011;60570;50.848;6.776;2022-09-12T01:03:21;7.45;;;3.30;;
72547;SDS011;60570;50.848;6.776;2022-09-12T01:04:23;4.50;;;2.63;;
72547;SDS011;60570;50.848;6.776;2022-09-12T01:05:27;5.50;;;3.13;;
72547;SDS011;60570;50.848;6.776;2022-09-12T01:06:34;6.22;;;3.55;;
72547;SDS011;60570;50.848;6.776;2022-09-12T01:07:37;5.50;;;2.83;;
72547;SDS011;60570;50.848;6.776;2022-09-12T01:08:39;5.38;;;3.22;;
72547;SDS011;60570;50.848;6.776;2022-09-12T01:09:43;7.85;;;3.63;;
72547;SDS011;60570;50.848;6.776;2022-09-12T01:10:44;5.53;;;3.30;;
72547;SDS011;60570;50.848;6.776;2022-09-12T01:11:45;8.00;;;3.25;;
72547;SDS011;60570;50.848;6.776;2022-09-12T01:12:47;6.15;;;3.45;;
72547;SDS011;60570;50.848;6.776;2022-09-12T01:13:49;5.68;;;3.05;;
72547;SDS011;60570;50.848;6.776;2022-09-12T01:14:49;6.38;;;3.75;;
72547;SDS011;60570;50.848;6.776;2022-09-12T01:15:50;5.90;;;3.50;;
72547;SDS011;60570;50.848;6.776;2022-09-12T01:16:51;5.70;;;3.40;;
72547;SDS011;60570;50.848;6.776;2022-09-12T01:21:04;5.80;;;3.05;;
72547;SDS011;60570;50.848;6.776;2022-09-12T01:25:06;5.85;;;3.35;;
72547;SDS011;60570;50.848;6.776;2022-09-12T01:29:35;5.97;;;3.45;;
72547;SDS011;60570;50.848;6.776;2022-09-12T01:32:07;6.10;;;3.20;;
72547;SDS011;60570;50.848;6.776;2022-09-12T01:35:06;6.40;;;3.47;;
72547;SDS011;60570;50.848;6.776;2022-09-12T01:37:52;6.38;;;3.80;;
72547;SDS011;60570;50.848;6.776;2022-09-12T01:39:05;6.32;;;3.70;;
72547;SDS011;60570;50.848;6.776;2022-09-12T01:40:20;6.07;;;3.08;;
72547;SDS011;60570;50.848;6.776;2022-09-12T01:41:39;6.15;;;3.90;;
72547;SDS011;60570;50.848;6.776;2022-09-12T01:47:33;6.43;;;3.50;;
72547;SDS011;60570;50.848;6.776;2022-09-12T01:51:09;5.40;;;3.47;;
72547;SDS011;60570;50.848;6.776;2022-09-12T01:52:22;5.50;;;3.42;;
72547;SDS011;60570;50.848;6.776;2022-09-12T01:53:32;5.65;;;3.90;;
72547;SDS011;60570;50.848;6.776;2022-09-12T01:54:39;6.18;;;3.10;;
72547;SDS011;60570;50.848;6.776;2022-09-12T01:55:45;5.85;;;3.25;;
72547;SDS011;60570;50.848;6.776;2022-09-12T01:56:50;6.18;;;3.63;;
72547;SDS011;60570;50.848;6.776;2022-09-12T01:57:59;6.28;;;3.28;;
72547;SDS011;60570;50.848;6.776;2022-09-12T02:00:10;6.53;;;3.70;;
72547;SDS011;60570;50.848;6.776;2022-09-12T02:01:16;6.22;;;3.63;;
72547;SDS011;60570;50.848;6.776;2022-09-12T02:02:27;7.38;;;3.65;;
72547;SDS011;60570;50.848;6.776;2022-09-12T02:05:32;6.05;;;3.60;;
72547;SDS011;60570;50.848;6.776;2022-09-12T02:06:36;7.13;;;3.90;;
72547;SDS011;60570;50.848;6.776;2022-09-12T02:07:44;6.07;;;3.50;;
72547;SDS011;60570;50.848;6.776;2022-09-12T02:08:52;6.03;;;3.53;;
72547;SDS011;60570;50.848;6.776;2022-09-12T02:09:58;6.38;;;3.50;;
72547;SDS011;60570;50.848;6.776;2022-09-12T02:11:09;6.30;;;3.95;;
72547;SDS011;60570;50.848;6.776;2022-09-12T02:12:11;6.97;;;3.88;;
72547;SDS011;60570;50.848;6.776;2022-09-12T02:13:31;6.55;;;3.92;;
72547;SDS011;60570;50.848;6.776;2022-09-12T02:14:35;5.25;;;3.40;;
72547;SDS011;60570;50.848;6.776;2022-09-12T02:15:41;6.38;;;3.67;;
72547;SDS011;60570;50.848;6.776;2022-09-12T02:16:48;6.05;;;3.30;;
72547;SDS011;60570;50.848;6.776;2022-09-12T02:17:54;6.80;;;3.60;;
72547;SDS011;60570;50.848;6.776;2022-09-12T02:18:58;6.65;;;4.05;;
72547;SDS011;60570;50.848;6.776;2022-09-12T02:20:07;6.68;;;3.88;;
72547;SDS011;60570;50.848;6.776;2022-09-12T02:21:20;5.38;;;3.15;;
72547;SDS011;60570;50.848;6.776;2022-09-12T02:22:24;6.03;;;3.80;;
72547;SDS011;60570;50.848;6.776;2022-09-12T02:23:27;6.50;;;3.88;;
72547;SDS011;60570;50.848;6.776;2022-09-12T02:24:30;8.38;;;3.80;;
72547;SDS011;60570;50.848;6.776;2022-09-12T02:25:39;6.88;;;4.13;;
72547;SDS011;60570;50.848;6.776;2022-09-12T02:26:44;6.25;;;3.85;;
72547;SDS011;60570;50.848;6.776;2022-09-12T02:27:50;6.88;;;3.85;;
72547;SDS011;60570;50.848;6.776;2022-09-12T02:28:56;6.68;;;4.30;;
72547;SDS011;60570;50.848;6.776;2022-09-12T02:29:57;6.05;;;3.78;;
72547;SDS011;60570;50.848;6.776;2022-09-12T02:32:09;6.28;;;3.90;;
72547;SDS011;60570;50.848;6.776;2022-09-12T02:34:02;6.72;;;3.90;;
72547;SDS011;60570;50.848;6.776;2022-09-12T02:36:03;6.93;;;3.88;;
72547;SDS011;60570;50.848;6.776;2022-09-12T02:37:24;7.47;;;3.90;;
72547;SDS011;60570;50.848;6.776;2022-09-12T02:38:44;8.02;;;4.18;;
72547;SDS011;60570;50.848;6.776;2022-09-12T02:39:46;6.43;;;4.22;;
72547;SDS011;60570;50.848;6.776;2022-09-12T02:40:47;8.23;;;4.15;;
72547;SDS011;60570;50.848;6.776;2022-09-12T02:41:50;7.35;;;4.47;;
72547;SDS011;60570;50.848;6.776;2022-09-12T02:42:53;6.90;;;3.85;;
72547;SDS011;60570;50.848;6.776;2022-09-12T02:43:54;6.63;;;3.97;;
72547;SDS011;60570;50.848;6.776;2022-09-12T02:44:55;6.25;;;3.75;;
72547;SDS011;60570;50.848;6.776;2022-09-12T02:45:56;6.88;;;4.20;;
72547;SDS011;60570;50.848;6.776;2022-09-12T02:47:04;7.00;;;3.92;;
72547;SDS011;60570;50.848;6.776;2022-09-12T02:49:16;6.88;;;4.13;;
72547;SDS011;60570;50.848;6.776;2022-09-12T02:50:16;8.18;;;4.20;;
72547;SDS011;60570;50.848;6.776;2022-09-12T02:51:18;7.28;;;3.95;;
72547;SDS011;60570;50.848;6.776;2022-09-12T02:52:20;7.57;;;3.97;;
72547;SDS011;60570;50.848;6.776;2022-09-12T02:53:20;8.57;;;4.13;;
72547;SDS011;60570;50.848;6.776;2022-09-12T02:54:21;8.50;;;4.05;;
72547;SDS011;60570;50.848;6.776;2022-09-12T02:55:23;5.82;;;3.70;;
72547;SDS011;60570;50.848;6.776;2022-09-12T02:56:25;7.45;;;3.92;;
72547;SDS011;60570;50.848;6.776;2022-09-12T02:57:27;6.88;;;4.20;;
72547;SDS011;60570;50.848;6.776;2022-09-12T02:58:28;7.15;;;4.65;;
72547;SDS011;60570;50.848;6.776;2022-09-12T02:59:30;6.80;;;3.72;;
72547;SDS011;60570;50.848;6.776;2022-09-12T03:00:33;6.43;;;4.28;;
72547;SDS011;60570;50.848;6.776;2022-09-12T03:06:23;6.85;;;4.40;;
72547;SDS011;60570;50.848;6.776;2022-09-12T03:10:26;6.85;;;4.03;;
72547;SDS011;60570;50.848;6.776;2022-09-12T03:12:07;8.52;;;4.70;;
72547;SDS011;60570;50.848;6.776;2022-09-12T03:17:21;7.53;;;4.80;;
72547;SDS011;60570;50.848;6.776;2022-09-12T03:18:52;9.23;;;4.90;;
72547;SDS011;60570;50.848;6.776;2022-09-12T03:25:13;6.47;;;4.22;;
72547;SDS011;60570;50.848;6.776;2022-09-12T03:26:20;8.43;;;4.38;;
72547;SDS011;60570;50.848;6.776;2022-09-12T03:27:38;10.10;;;4.22;;
72547;SDS011;60570;50.848;6.776;2022-09-12T03:29:05;7.93;;;4.55;;
72547;SDS011;60570;50.848;6.776;2022-09-12T03:30:07;7.03;;;4.32;;
72547;SDS011;60570;50.848;6.776;2022-09-12T03:31:10;8.00;;;4.45;;
72547;SDS011;60570;50.848;6.776;2022-09-12T03:32:20;6.53;;;4.43;;
72547;SDS011;60570;50.848;6.776;2022-09-12T03:33:39;8.68;;;4.53;;
72547;SDS011;60570;50.848;6.776;2022-09-12T03:34:39;7.63;;;4.10;;
72547;SDS011;60570;50.848;6.776;2022-09-12T03:35:39;8.07;;;4.63;;
72547;SDS011;60570;50.848;6.776;2022-09-12T03:36:40;8.20;;;4.85;;
72547;SDS011;60570;50.848;6.776;2022-09-12T03:37:40;7.65;;;4.28;;
72547;SDS011;60570;50.848;6.776;2022-09-12T03:38:41;9.05;;;5.20;;
72547;SDS011;60570;50.848;6.776;2022-09-12T03:39:41;8.38;;;5.15;;
72547;SDS011;60570;50.848;6.776;2022-09-12T03:40:42;6.65;;;4.53;;
72547;SDS011;60570;50.848;6.776;2022-09-12T03:41:42;7.38;;;4.70;;
72547;SDS011;60570;50.848;6.776;2022-09-12T03:42:43;8.25;;;4.95;;
72547;SDS011;60570;50.848;6.776;2022-09-12T03:43:44;8.63;;;5.07;;
72547;SDS011;60570;50.848;6.776;2022-09-12T03:44:45;7.95;;;4.82;;
72547;SDS011;60570;50.848;6.776;2022-09-12T03:45:46;9.07;;;5.20;;
72547;SDS011;60570;50.848;6.776;2022-09-12T03:46:50;8.35;;;4.20;;
72547;SDS011;60570;50.848;6.776;2022-09-12T03:47:50;7.97;;;4.82;;
72547;SDS011;60570;50.848;6.776;2022-09-12T03:48:51;9.90;;;5.10;;
72547;SDS011;60570;50.848;6.776;2022-09-12T03:49:51;8.02;;;4.90;;
72547;SDS011;60570;50.848;6.776;2022-09-12T03:50:51;6.65;;;4.30;;
72547;SDS011;60570;50.848;6.776;2022-09-12T03:51:52;7.38;;;4.30;;
72547;SDS011;60570;50.848;6.776;2022-09-12T03:52:52;7.90;;;4.22;;
72547;SDS011;60570;50.848;6.776;2022-09-12T03:53:53;9.60;;;5.07;;
72547;SDS011;60570;50.848;6.776;2022-09-12T03:54:53;7.03;;;4.45;;
72547;SDS011;60570;50.848;6.776;2022-09-12T03:55:54;7.57;;;4.78;;
72547;SDS011;60570;50.848;6.776;2022-09-12T03:56:54;7.35;;;4.78;;
72547;SDS011;60570;50.848;6.776;2022-09-12T03:57:54;6.55;;;4.55;;
72547;SDS011;60570;50.848;6.776;2022-09-12T03:58:55;7.68;;;4.78;;
72547;SDS011;60570;50.848;6.776;2022-09-12T03:59:56;7.28;;;4.43;;
72547;SDS011;60570;50.848;6.776;2022-09-12T04:00:56;9.32;;;4.80;;
72547;SDS011;60570;50.848;6.776;2022-09-12T04:01:57;7.60;;;5.05;;
72547;SDS011;60570;50.848;6.776;2022-09-12T04:02:57;6.85;;;4.45;;
72547;SDS011;60570;50.848;6.776;2022-09-12T04:03:58;7.25;;;4.25;;
72547;SDS011;60570;50.848;6.776;2022-09-12T04:04:58;7.88;;;4.32;;
72547;SDS011;60570;50.848;6.776;2022-09-12T04:05:58;8.50;;;5.03;;
72547;SDS011;60570;50.848;6.776;2022-09-12T04:06:59;8.07;;;4.82;;
72547;SDS011;60570;50.848;6.776;2022-09-12T04:07:59;8.55;;;4.75;;
72547;SDS011;60570;50.848;6.776;2022-09-12T04:09:00;10.90;;;4.60;;
72547;SDS011;60570;50.848;6.776;2022-09-12T04:10:00;8.98;;;4.82;;
72547;SDS011;60570;50.848;6.776;2022-09-12T04:11:01;7.50;;;4.80;;
72547;SDS011;60570;50.848;6.776;2022-09-12T04:12:03;7.55;;;4.78;;
72547;SDS011;60570;50.848;6.776;2022-09-12T04:13:04;8.48;;;4.75;;
72547;SDS011;60570;50.848;6.776;2022-09-12T04:14:04;7.25;;;4.15;;
72547;SDS011;60570;50.848;6.776;2022-09-12T04:15:05;7.80;;;4.53;;
72547;SDS011;60570;50.848;6.776;2022-09-12T04:16:07;8.15;;;4.88;;
72547;SDS011;60570;50.848;6.776;2022-09-12T04:17:08;8.45;;;5.07;;
72547;SDS011;60570;50.848;6.776;2022-09-12T04:18:08;8.23;;;4.72;;
72547;SDS011;60570;50.848;6.776;2022-09-12T04:19:09;7.40;;;4.53;;
72547;SDS011;60570;50.848;6.776;2022-09-12T04:20:10;8.27;;;4.95;;
72547;SDS011;60570;50.848;6.776;2022-09-12T04:21:12;7.50;;;4.80;;
72547;SDS011;60570;50.848;6.776;2022-09-12T04:22:15;8.18;;;4.90;;
72547;SDS011;60570;50.848;6.776;2022-09-12T04:23:15;8.07;;;4.85;;
72547;SDS011;60570;50.848;6.776;2022-09-12T04:24:16;7.95;;;4.57;;
72547;SDS011;60570;50.848;6.776;2022-09-12T04:25:17;7.05;;;4.53;;
72547;SDS011;60570;50.848;6.776;2022-09-12T04:26:17;7.57;;;4.78;;
72547;SDS011;60570;50.848;6.776;2022-09-12T04:27:18;8.05;;;5.45;;
72547;SDS011;60570;50.848;6.776;2022-09-12T04:28:19;9.00;;;4.90;;
72547;SDS011;60570;50.848;6.776;2022-09-12T04:29:19;7.18;;;4.80;;
72547;SDS011;60570;50.848;6.776;2022-09-12T04:30:20;10.05;;;5.53;;
72547;SDS011;60570;50.848;6.776;2022-09-12T04:31:20;8.93;;;5.55;;
72547;SDS011;60570;50.848;6.776;2022-09-12T04:32:21;8.15;;;5.03;;
72547;SDS011;60570;50.848;6.776;2022-09-12T04:33:22;8.35;;;4.85;;
72547;SDS011;60570;50.848;6.776;2022-09-12T04:34:22;9.70;;;5.57;;
72547;SDS011;60570;50.848;6.776;2022-09-12T04:35:23;8.18;;;5.28;;
72547;SDS011;60570;50.848;6.776;2022-09-12T04:36:24;7.28;;;4.82;;
72547;SDS011;60570;50.848;6.776;2022-09-12T04:37:25;8.60;;;5.22;;
72547;SDS011;60570;50.848;6.776;2022-09-12T04:38:25;9.30;;;5.00;;
72547;SDS011;60570;50.848;6.776;2022-09-12T04:39:26;9.13;;;5.20;;
72547;SDS011;60570;50.848;6.776;2022-09-12T04:40:28;10.25;;;5.22;;
72547;SDS011;60570;50.848;6.776;2022-09-12T04:41:30;10.15;;;5.22;;
72547;SDS011;60570;50.848;6.776;2022-09-12T04:42:32;9.70;;;5.45;;
72547;SDS011;60570;50.848;6.776;2022-09-12T04:43:32;7.13;;;5.20;;
72547;SDS011;60570;50.848;6.776;2022-09-12T04:44:33;8.15;;;4.78;;
72547;SDS011;60570;50.848;6.776;2022-09-12T04:45:33;8.32;;;5.18;;
72547;SDS011;60570;50.848;6.776;2022-09-12T04:46:35;9.88;;;5.22;;
72547;SDS011;60570;50.848;6.776;2022-09-12T04:47:37;8.68;;;5.40;;
72547;SDS011;60570;50.848;6.776;2022-09-12T04:48:38;8.82;;;5.05;;
72547;SDS011;60570;50.848;6.776;2022-09-12T04:49:38;7.40;;;4.97;;
72547;SDS011;60570;50.848;6.776;2022-09-12T04:50:38;8.48;;;5.32;;
72547;SDS011;60570;50.848;6.776;2022-09-12T04:51:39;9.73;;;5.13;;
72547;SDS011;60570;50.848;6.776;2022-09-12T04:52:41;8.73;;;4.95;;
72547;SDS011;60570;50.848;6.776;2022-09-12T04:53:42;8.60;;;5.85;;
72547;SDS011;60570;50.848;6.776;2022-09-12T04:54:44;8.35;;;5.60;;
72547;SDS011;60570;50.848;6.776;2022-09-12T04:55:44;11.07;;;5.28;;
72547;SDS011;60570;50.848;6.776;2022-09-12T04:56:46;11.10;;;5.40;;
72547;SDS011;60570;50.848;6.776;2022-09-12T04:57:48;8.38;;;5.05;;
72547;SDS011;60570;50.848;6.776;2022-09-12T04:58:48;10.13;;;5.53;;
72547;SDS011;60570;50.848;6.776;2022-09-12T04:59:49;7.85;;;4.80;;
72547;SDS011;60570;50.848;6.776;2022-09-12T05:00:49;11.00;;;5.75;;
72547;SDS011;60570;50.848;6.776;2022-09-12T05:01:49;8.13;;;5.18;;
72547;SDS011;60570;50.848;6.776;2022-09-12T05:02:50;8.52;;;5.18;;
72547;SDS011;60570;50.848;6.776;2022-09-12T05:03:51;11.25;;;5.18;;
72547;SDS011;60570;50.848;6.776;2022-09-12T05:04:51;8.48;;;5.70;;
72547;SDS011;60570;50.848;6.776;2022-09-12T05:05:51;8.52;;;5.28;;
72547;SDS011;60570;50.848;6.776;2022-09-12T05:06:52;10.23;;;5.65;;
72547;SDS011;60570;50.848;6.776;2022-09-12T05:07:52;11.68;;;5.60;;
72547;SDS011;60570;50.848;6.776;2022-09-12T05:08:53;11.30;;;5.50;;
72547;SDS011;60570;50.848;6.776;2022-09-12T05:09:55;11.43;;;5.65;;
72547;SDS011;60570;50.848;6.776;2022-09-12T05:10:55;15.35;;;8.82;;
72547;SDS011;60570;50.848;6.776;2022-09-12T05:11:56;16.45;;;10.00;;
72547;SDS011;60570;50.848;6.776;2022-09-12T05:12:57;17.05;;;11.25;;
72547;SDS011;60570;50.848;6.776;2022-09-12T05:13:57;20.02;;;11.02;;
72547;SDS011;60570;50.848;6.776;2022-09-12T05:14:58;16.73;;;10.48;;
72547;SDS011;60570;50.848;6.776;2022-09-12T05:15:59;17.60;;;11.23;;
72547;SDS011;60570;50.848;6.776;2022-09-12T05:17:02;17.00;;;10.93;;
72547;SDS011;60570;50.848;6.776;2022-09-12T05:18:03;18.48;;;10.40;;
72547;SDS011;60570;50.848;6.776;2022-09-12T05:19:03;19.13;;;10.00;;
72547;SDS011;60570;50.848;6.776;2022-09-12T05:20:04;18.10;;;10.57;;
72547;SDS011;60570;50.848;6.776;2022-09-12T05:21:05;16.58;;;10.23;;
72547;SDS011;60570;50.848;6.776;2022-09-12T05:22:08;14.73;;;9.25;;
72547;SDS011;60570;50.848;6.776;2022-09-12T05:23:08;17.40;;;9.93;;
72547;SDS011;60570;50.848;6.776;2022-09-12T05:24:09;17.15;;;9.68;;
72547;SDS011;60570;50.848;6.776;2022-09-12T05:25:10;15.75;;;9.32;;
72547;SDS011;60570;50.848;6.776;2022-09-12T05:26:11;15.48;;;9.07;;
72547;SDS011;60570;50.848;6.776;2022-09-12T05:27:14;16.70;;;8.50;;
72547;SDS011;60570;50.848;6.776;2022-09-12T05:28:15;17.85;;;8.93;;
72547;SDS011;60570;50.848;6.776;2022-09-12T05:29:15;17.40;;;8.75;;
72547;SDS011;60570;50.848;6.776;2022-09-12T05:30:16;14.77;;;8.65;;
72547;SDS011;60570;50.848;6.776;2022-09-12T05:32:18;17.20;;;8.57;;
72547;SDS011;60570;50.848;6.776;2022-09-12T05:33:19;12.88;;;7.93;;
72547;SDS011;60570;50.848;6.776;2022-09-12T05:34:20;17.00;;;8.65;;
72547;SDS011;60570;50.848;6.776;2022-09-12T05:35:20;13.48;;;8.07;;
72547;SDS011;60570;50.848;6.776;2022-09-12T05:36:22;14.38;;;7.93;;
72547;SDS011;60570;50.848;6.776;2022-09-12T05:37:24;13.77;;;7.85;;
72547;SDS011;60570;50.848;6.776;2022-09-12T05:38:24;15.13;;;7.80;;
72547;SDS011;60570;50.848;6.776;2022-09-12T05:39:27;12.77;;;7.90;;
72547;SDS011;60570;50.848;6.776;2022-09-12T05:40:28;11.98;;;7.35;;
72547;SDS011;60570;50.848;6.776;2022-09-12T05:41:29;16.33;;;8.00;;
72547;SDS011;60570;50.848;6.776;2022-09-12T05:42:32;11.77;;;7.35;;
72547;SDS011;60570;50.848;6.776;2022-09-12T05:43:32;13.57;;;7.60;;
72547;SDS011;60570;50.848;6.776;2022-09-12T05:44:33;12.70;;;7.30;;
72547;SDS011;60570;50.848;6.776;2022-09-12T05:45:34;12.95;;;7.13;;
72547;SDS011;60570;50.848;6.776;2022-09-12T05:46:35;13.68;;;7.93;;
72547;SDS011;60570;50.848;6.776;2022-09-12T05:47:40;13.57;;;7.38;;
72547;SDS011;60570;50.848;6.776;2022-09-12T05:48:43;13.38;;;7.72;;
72547;SDS011;60570;50.848;6.776;2022-09-12T05:49:45;16.88;;;7.82;;
72547;SDS011;60570;50.848;6.776;2022-09-12T05:50:46;15.80;;;7.05;;
72547;SDS011;60570;50.848;6.776;2022-09-12T05:51:47;13.40;;;7.65;;
72547;SDS011;60570;50.848;6.776;2022-09-12T05:52:47;9.68;;;6.70;;
72547;SDS011;60570;50.848;6.776;2022-09-12T05:53:50;13.30;;;6.85;;
72547;SDS011;60570;50.848;6.776;2022-09-12T05:54:51;12.48;;;6.53;;
72547;SDS011;60570;50.848;6.776;2022-09-12T05:56:02;13.23;;;6.75;;
72547;SDS011;60570;50.848;6.776;2022-09-12T05:57:04;12.50;;;7.13;;
72547;SDS011;60570;50.848;6.776;2022-09-12T05:58:05;10.73;;;7.15;;
72547;SDS011;60570;50.848;6.776;2022-09-12T05:59:09;11.38;;;6.07;;
72547;SDS011;60570;50.848;6.776;2022-09-12T06:00:12;10.35;;;6.55;;
72547;SDS011;60570;50.848;6.776;2022-09-12T06:01:14;13.85;;;7.00;;
72547;SDS011;60570;50.848;6.776;2022-09-12T06:02:16;11.18;;;7.25;;
72547;SDS011;60570;50.848;6.776;2022-09-12T06:03:17;10.20;;;6.38;;
72547;SDS011;60570;50.848;6.776;2022-09-12T06:04:17;15.48;;;6.75;;
72547;SDS011;60570;50.848;6.776;2022-09-12T06:05:18;10.73;;;6.28;;
72547;SDS011;60570;50.848;6.776;2022-09-12T06:06:19;11.18;;;7.03;;
72547;SDS011;60570;50.848;6.776;2022-09-12T06:07:22;10.38;;;6.35;;
72547;SDS011;60570;50.848;6.776;2022-09-12T06:08:22;12.93;;;6.10;;
72547;SDS011;60570;50.848;6.776;2022-09-12T06:09:22;11.20;;;7.13;;
72547;SDS011;60570;50.848;6.776;2022-09-12T06:10:24;9.57;;;6.32;;
72547;SDS011;60570;50.848;6.776;2022-09-12T06:11:26;9.60;;;6.40;;
72547;SDS011;60570;50.848;6.776;2022-09-12T06:12:28;11.80;;;6.72;;
72547;SDS011;60570;50.848;6.776;2022-09-12T06:13:32;12.10;;;7.10;;
72547;SDS011;60570;50.848;6.776;2022-09-12T06:14:35;10.07;;;6.50;;
72547;SDS011;60570;50.848;6.776;2022-09-12T06:15:36;12.30;;;6.93;;
72547;SDS011;60570;50.848;6.776;2022-09-12T06:16:37;10.77;;;6.68;;
72547;SDS011;60570;50.848;6.776;2022-09-12T06:17:37;11.88;;;6.82;;
72547;SDS011;60570;50.848;6.776;2022-09-12T06:18:38;10.23;;;6.53;;
72547;SDS011;60570;50.848;6.776;2022-09-12T06:19:40;10.90;;;6.35;;
72547;SDS011;60570;50.848;6.776;2022-09-12T06:20:40;13.05;;;7.10;;
72547;SDS011;60570;50.848;6.776;2022-09-12T06:21:40;10.50;;;6.38;;
72547;SDS011;60570;50.848;6.776;2022-09-12T06:22:41;10.05;;;6.40;;
72547;SDS011;60570;50.848;6.776;2022-09-12T06:23:41;9.95;;;6.28;;
72547;SDS011;60570;50.848;6.776;2022-09-12T06:24:43;11.57;;;6.50;;
72547;SDS011;60570;50.848;6.776;2022-09-12T06:25:46;12.05;;;6.43;;
72547;SDS011;60570;50.848;6.776;2022-09-12T06:26:49;10.32;;;6.00;;
72547;SDS011;60570;50.848;6.776;2022-09-12T06:27:51;10.30;;;6.45;;
72547;SDS011;60570;50.848;6.776;2022-09-12T06:28:52;10.38;;;6.32;;
72547;SDS011;60570;50.848;6.776;2022-09-12T06:29:53;10.27;;;6.25;;
72547;SDS011;60570;50.848;6.776;2022-09-12T06:30:59;9.65;;;6.45;;
72547;SDS011;60570;50.848;6.776;2022-09-12T06:32:01;9.63;;;5.93;;
72547;SDS011;60570;50.848;6.776;2022-09-12T06:33:01;11.05;;;6.80;;
72547;SDS011;60570;50.848;6.776;2022-09-12T06:34:03;9.85;;;6.10;;
72547;SDS011;60570;50.848;6.776;2022-09-12T06:35:05;11.45;;;6.18;;
72547;SDS011;60570;50.848;6.776;2022-09-12T06:36:06;9.00;;;6.00;;
72547;SDS011;60570;50.848;6.776;2022-09-12T06:37:17;9.18;;;5.85;;
72547;SDS011;60570;50.848;6.776;2022-09-12T06:38:19;10.48;;;6.72;;
72547;SDS011;60570;50.848;6.776;2022-09-12T06:39:19;10.60;;;6.00;;
72547;SDS011;60570;50.848;6.776;2022-09-12T06:40:21;9.43;;;6.78;;
72547;SDS011;60570;50.848;6.776;2022-09-12T06:41:22;12.05;;;6.45;;
72547;SDS011;60570;50.848;6.776;2022-09-12T06:42:23;10.75;;;6.07;;
72547;SDS011;60570;50.848;6.776;2022-09-12T06:43:23;10.18;;;6.35;;
72547;SDS011;60570;50.848;6.776;2022-09-12T06:44:24;11.75;;;6.18;;
72547;SDS011;60570;50.848;6.776;2022-09-12T06:45:24;10.02;;;6.65;;
72547;SDS011;60570;50.848;6.776;2022-09-12T06:46:25;12.25;;;6.72;;
72547;SDS011;60570;50.848;6.776;2022-09-12T06:47:26;10.00;;;6.05;;
72547;SDS011;60570;50.848;6.776;2022-09-12T06:48:27;10.45;;;6.03;;
72547;SDS011;60570;50.848;6.776;2022-09-12T06:49:28;11.20;;;6.13;;
72547;SDS011;60570;50.848;6.776;2022-09-12T06:50:30;12.23;;;6.53;;
72547;SDS011;60570;50.848;6.776;2022-09-12T06:51:30;9.60;;;6.50;;
72547;SDS011;60570;50.848;6.776;2022-09-12T06:52:31;12.88;;;7.05;;
72547;SDS011;60570;50.848;6.776;2022-09-12T06:53:31;8.93;;;5.60;;
72547;SDS011;60570;50.848;6.776;2022-09-12T06:54:33;10.15;;;6.63;;
72547;SDS011;60570;50.848;6.776;2022-09-12T06:55:33;10.82;;;6.32;;
72547;SDS011;60570;50.848;6.776;2022-09-12T06:56:33;10.98;;;6.18;;
72547;SDS011;60570;50.848;6.776;2022-09-12T06:57:34;11.75;;;6.03;;
72547;SDS011;60570;50.848;6.776;2022-09-12T06:58:35;10.45;;;5.82;;
72547;SDS011;60570;50.848;6.776;2022-09-12T06:59:36;8.82;;;6.05;;
72547;SDS011;60570;50.848;6.776;2022-09-12T07:00:36;10.90;;;6.35;;
72547;SDS011;60570;50.848;6.776;2022-09-12T07:01:37;10.18;;;6.20;;
72547;SDS011;60570;50.848;6.776;2022-09-12T07:02:39;11.05;;;6.43;;
72547;SDS011;60570;50.848;6.776;2022-09-12T07:03:39;10.70;;;6.32;;
72547;SDS011;60570;50.848;6.776;2022-09-12T07:04:41;11.23;;;6.80;;